»·PEaware :: N5656Y KAVX-KSAN

N5656Y :: KAVX-KSAN

FLIGHT INFORMATION

Flight Status: Arrived
Operator: Privately registered:
United States
More flights under this callsign
Pilot: Anonymous 20359 (20359)
Aircraft: CESSNA 172 SKYHAWK
(C172)
More flights by this aircraft type
Origin: KAVX Catalina
United States
Destination: KSAN San Diego Intl-Lindbergh
United States
More flights between these airports :: More routes between these airports
Route: SXC V208 OCN V23 MZB
File this flight plan on PilotEdge
Remarks: TEC route CSTP56
Altitude:
(Current/Filed)
5,000ft
Speed:
(Current/Filed)
120kts
Departed: 10-Oct-18 02:49 PM
Arrived: 10-Oct-18 03:53 PM
Distance/Time
Traveled:
74nm/1:03
Distance/Time
To Go:
Arrived

Flight Plot

Page will automatically refresh every two minutes.


Map Options




Map Legend


Flown Route
Filed Route
Departure Airport
Arrival Airport
Navaid (VOR, NDB)
Fix

Horizontal Profiles

Position Reports

Time Latitude Longitude Heading Altitude Ground
Speed
10-Oct-18 14:42 33.403292 -118.415954 44 1551ft 0kts
10-Oct-18 14:43 33.403292 -118.415954 44 1551ft 0kts
10-Oct-18 14:44 33.403292 -118.415954 44 1551ft 0kts
10-Oct-18 14:45 33.403292 -118.415954 44 1551ft 0kts
10-Oct-18 14:46 33.403292 -118.415954 44 1551ft 0kts
10-Oct-18 14:47 33.403292 -118.415954 44 1551ft 0kts
10-Oct-18 14:48 33.403292 -118.415954 44 1551ft 0kts
10-Oct-18 14:49 33.403990 -118.415016 15 1545ft 20kts
10-Oct-18 14:50 33.407176 -118.411409 40 1499ft 3kts
10-Oct-18 14:51 33.399582 -118.423264 227 1859ft 85kts
10-Oct-18 14:52 33.381859 -118.440202 167 2862ft 84kts
10-Oct-18 14:53 33.374501 -118.416717 95 3866ft 77kts
10-Oct-18 14:54 33.370864 -118.383466 98 4080ft 124kts
10-Oct-18 14:55 33.365392 -118.341387 98 4078ft 129kts
10-Oct-18 14:56 33.359926 -118.299508 98 4343ft 112kts
10-Oct-18 14:57 33.355765 -118.266985 98 5102ft 108kts
10-Oct-18 14:58 33.350396 -118.226626 98 5080ft 128kts
10-Oct-18 14:59 33.344819 -118.184318 98 5080ft 129kts
10-Oct-18 15:00 33.339232 -118.141919 98 5080ft 129kts
10-Oct-18 15:01 33.333630 -118.099556 98 5080ft 129kts
10-Oct-18 15:02 33.327999 -118.057068 98 5080ft 129kts
10-Oct-18 15:03 33.322389 -118.014871 98 5092ft 129kts
10-Oct-18 15:04 33.316733 -117.972444 98 5092ft 129kts
10-Oct-18 15:05 33.311073 -117.930102 98 5092ft 129kts
10-Oct-18 15:06 33.305391 -117.887707 98 5092ft 129kts
10-Oct-18 15:07 33.299807 -117.845306 98 5092ft 129kts
10-Oct-18 15:08 33.294493 -117.802939 98 5092ft 129kts
10-Oct-18 15:09 33.288901 -117.760617 98 5092ft 129kts
10-Oct-18 15:10 33.282768 -117.718247 99 5092ft 129kts
10-Oct-18 15:11 33.276420 -117.675989 99 5092ft 129kts
10-Oct-18 15:12 33.269005 -117.626782 99 5092ft 129kts
10-Oct-18 15:13 33.263679 -117.591526 99 5092ft 129kts
10-Oct-18 15:14 33.258098 -117.549268 97 5092ft 129kts
10-Oct-18 15:15 33.252951 -117.506764 97 5092ft 129kts
10-Oct-18 15:16 33.247778 -117.464240 97 5092ft 129kts
10-Oct-18 15:17 33.241326 -117.422406 123 5084ft 129kts
10-Oct-18 15:18 33.209490 -117.403732 158 5092ft 129kts
10-Oct-18 15:19 33.175679 -117.389172 160 5092ft 129kts
10-Oct-18 15:20 33.141862 -117.375195 159 5092ft 129kts
10-Oct-18 15:21 33.107714 -117.360847 159 5055ft 129kts
10-Oct-18 15:22 33.074313 -117.346804 160 5055ft 129kts
10-Oct-18 15:23 33.034743 -117.330183 160 5055ft 129kts
10-Oct-18 15:24 33.006515 -117.318333 160 5055ft 129kts
10-Oct-18 15:25 32.972669 -117.304134 160 5055ft 129kts
10-Oct-18 15:26 32.938774 -117.289926 160 5055ft 129kts
10-Oct-18 15:27 32.904751 -117.275940 160 5055ft 129kts
10-Oct-18 15:28 32.871448 -117.261081 159 5055ft 129kts
10-Oct-18 15:29 32.841277 -117.240820 115 5056ft 128kts
10-Oct-18 15:30 32.828157 -117.201186 111 5055ft 128kts
10-Oct-18 15:31 32.815221 -117.161526 110 5055ft 128kts
10-Oct-18 15:32 32.802352 -117.121732 110 5055ft 128kts
10-Oct-18 15:33 32.789554 -117.082132 110 5055ft 128kts
10-Oct-18 15:34 32.777730 -117.042066 100 5056ft 128kts
10-Oct-18 15:35 32.771016 -117.000214 100 5055ft 129kts
10-Oct-18 15:36 32.764257 -116.958278 100 5055ft 129kts
10-Oct-18 15:37 32.757507 -116.916224 100 5055ft 129kts
10-Oct-18 15:38 32.750485 -116.874379 101 5055ft 129kts
10-Oct-18 15:39 32.743164 -116.832438 101 5055ft 129kts
10-Oct-18 15:40 32.735905 -116.790703 101 5055ft 129kts
10-Oct-18 15:41 32.728633 -116.748810 102 5054ft 129kts
10-Oct-18 15:42 32.703249 -116.752191 246 5053ft 128kts
10-Oct-18 15:43 32.691539 -116.792469 250 5055ft 129kts
10-Oct-18 15:44 32.679708 -116.832731 250 5055ft 129kts
10-Oct-18 15:45 32.667821 -116.873120 250 5055ft 129kts
10-Oct-18 15:46 32.669986 -116.915322 277 4984ft 129kts
10-Oct-18 15:47 32.674697 -116.965081 289 3944ft 128kts
10-Oct-18 15:48 32.688105 -116.993201 299 2948ft 95kts
10-Oct-18 15:49 32.698129 -117.023586 285 2770ft 95kts
10-Oct-18 15:50 32.700901 -117.057085 277 2271ft 120kts
10-Oct-18 15:51 32.710082 -117.092846 291 2051ft 114kts
10-Oct-18 15:52 32.719597 -117.129820 280 1394ft 114kts
10-Oct-18 15:53 32.725898 -117.158432 284 847ft 84kts
10-Oct-18 15:54 32.732009 -117.183436 286 14ft 58kts
10-Oct-18 15:55 32.733643 -117.188142 12 17ft 0kts
10-Oct-18 15:56 32.733908 -117.183980 29 17ft 10kts

Navigation Log

Ident Type
1. KAVX Airport
2. SXC Navaid
3. AVOLS Fix
4. PACIF Fix
5. HUBRD Fix
6. OCN Navaid
7. HURSI Fix
8. CARIF Fix
9. MZB Navaid
10. KSAN Airport